Aviation Digital Data Service (ADDS)

Output produced by METARs form (2042 UTC 20 August 2019)
found at http://www.aviationweather.gov/metar/data/
 
METAR text: GMME 201930Z 01007KT CAVOK 21/17 Q1015 NOSIG
Conditions at: GMME (RABAT/SALE (RMAF, MA) observed 1930 UTC 20 August 2019
Temperature: 21.0°C (70°F)
Dewpoint: 17.0°C (63°F) [RH = 78%]
Pressure (altimeter): 29.97 inches Hg (1015.0 mb)
Winds: from the N (10 degrees) at 8 MPH (7 knots; 3.6 m/s)
Visibility: 6 or more miles (10+ km)
Ceiling: ceiling and visibility are OK
Clouds: unknown
Weather: no significant weather observed at this time

METAR text: GMME 201900Z 01007KT CAVOK 22/16 Q1015 NOSIG
Conditions at: GMME (RABAT/SALE (RMAF, MA) observed 1900 UTC 20 August 2019
Temperature: 22.0°C (72°F)
Dewpoint: 16.0°C (61°F) [RH = 69%]
Pressure (altimeter): 29.97 inches Hg (1015.0 mb)
Winds: from the N (10 degrees) at 8 MPH (7 knots; 3.6 m/s)
Visibility: 6 or more miles (10+ km)
Ceiling: ceiling and visibility are OK
Clouds: unknown
Weather: no significant weather observed at this time

METAR text: GMME 201830Z 35009KT 8000 NSC 22/16 Q1015 NOSIG
Conditions at: GMME (RABAT/SALE (RMAF, MA) observed 1830 UTC 20 August 2019
Temperature: 22.0°C (72°F)
Dewpoint: 16.0°C (61°F) [RH = 69%]
Pressure (altimeter): 29.97 inches Hg (1015.0 mb)
Winds: from the N (350 degrees) at 10 MPH (9 knots; 4.6 m/s)
Visibility: 5 miles ( 8 km)
Ceiling: at least 12,000 feet AGL
Clouds: sky clear below 12,000 feet AGL
Weather: no significant weather observed at this time

METAR text: GMME 201800Z 36009KT 9999 NSC 23/16 Q1015 NOSIG
Conditions at: GMME (RABAT/SALE (RMAF, MA) observed 1800 UTC 20 August 2019
Temperature: 23.0°C (73°F)
Dewpoint: 16.0°C (61°F) [RH = 65%]
Pressure (altimeter): 29.97 inches Hg (1015.0 mb)
Winds: from the N (360 degrees) at 10 MPH (9 knots; 4.6 m/s)
Visibility: 6 or more miles (10+ km)
Ceiling: at least 12,000 feet AGL
Clouds: sky clear below 12,000 feet AGL
Weather: no significant weather observed at this time

METAR text: GMME 201730Z 36009KT 330V030 9999 NSC 24/16 Q1015 NOSIG
Conditions at: GMME (RABAT/SALE (RMAF, MA) observed 1730 UTC 20 August 2019
Temperature: 24.0°C (75°F)
Dewpoint: 16.0°C (61°F) [RH = 61%]
Pressure (altimeter): 29.97 inches Hg (1015.0 mb)
Winds: from the N (360 degrees) at 10 MPH (9 knots; 4.6 m/s)
Visibility: 6 or more miles (10+ km)
Ceiling: at least 12,000 feet AGL
Clouds: sky clear below 12,000 feet AGL
Weather: no significant weather observed at this time

METAR text: GMME 201700Z 36010KT 320V030 7000 NSC 24/17 Q1015 NOSIG
Conditions at: GMME (RABAT/SALE (RMAF, MA) observed 1700 UTC 20 August 2019
Temperature: 24.0°C (75°F)
Dewpoint: 17.0°C (63°F) [RH = 65%]
Pressure (altimeter): 29.97 inches Hg (1015.0 mb)
Winds: from the N (360 degrees) at 12 MPH (10 knots; 5.1 m/s)
Visibility: 4 miles ( 7 km)
Ceiling: at least 12,000 feet AGL
Clouds: sky clear below 12,000 feet AGL
Weather: no significant weather observed at this time

METAR text: GMME 201630Z 01009KT 310V040 7000 NSC 25/17 Q1015 NOSIG
Conditions at: GMME (RABAT/SALE (RMAF, MA) observed 1630 UTC 20 August 2019
Temperature: 25.0°C (77°F)
Dewpoint: 17.0°C (63°F) [RH = 61%]
Pressure (altimeter): 29.97 inches Hg (1015.0 mb)
Winds: from the N (10 degrees) at 10 MPH (9 knots; 4.6 m/s)
Visibility: 4 miles ( 7 km)
Ceiling: at least 12,000 feet AGL
Clouds: sky clear below 12,000 feet AGL
Weather: no significant weather observed at this time

METAR text: GMME 201530Z 35010KT 320V020 7000 NSC 25/16 Q1015 NOSIG
Conditions at: GMME (RABAT/SALE (RMAF, MA) observed 1530 UTC 20 August 2019
Temperature: 25.0°C (77°F)
Dewpoint: 16.0°C (61°F) [RH = 57%]
Pressure (altimeter): 29.97 inches Hg (1015.0 mb)
Winds: from the N (350 degrees) at 12 MPH (10 knots; 5.1 m/s)
Visibility: 4 miles ( 7 km)
Ceiling: at least 12,000 feet AGL
Clouds: sky clear below 12,000 feet AGL
Weather: no significant weather observed at this time

METAR text: GMME 201500Z AUTO 33010KT 310V010 7000NDV /// 25/16 Q1015
Conditions at: GMME (RABAT/SALE (RMAF, MA) observed 1500 UTC 20 August 2019
Temperature: 25.0°C (77°F)
Dewpoint: 16.0°C (61°F) [RH = 57%]
Pressure (altimeter): 29.97 inches Hg (1015.0 mb)
Winds: from the NNW (330 degrees) at 12 MPH (10 knots; 5.1 m/s)
Visibility: missing
Ceiling: unknown
Clouds: missing
Weather: no significant weather observed at this time

METAR text: GMME 201430Z 35009KT 320V020 7000 NSC 26/15 Q1015 NOSIG
Conditions at: GMME (RABAT/SALE (RMAF, MA) observed 1430 UTC 20 August 2019
Temperature: 26.0°C (79°F)
Dewpoint: 15.0°C (59°F) [RH = 51%]
Pressure (altimeter): 29.97 inches Hg (1015.0 mb)
Winds: from the N (350 degrees) at 10 MPH (9 knots; 4.6 m/s)
Visibility: 4 miles ( 7 km)
Ceiling: at least 12,000 feet AGL
Clouds: sky clear below 12,000 feet AGL
Weather: no significant weather observed at this time

METAR text: GMME 201400Z 34008KT 300V010 9000 NSC 26/14 Q1015 NOSIG
Conditions at: GMME (RABAT/SALE (RMAF, MA) observed 1400 UTC 20 August 2019
Temperature: 26.0°C (79°F)
Dewpoint: 14.0°C (57°F) [RH = 48%]
Pressure (altimeter): 29.97 inches Hg (1015.0 mb)
Winds: from the NNW (340 degrees) at 9 MPH (8 knots; 4.1 m/s)
Visibility: 6 miles ( 9 km)
Ceiling: at least 12,000 feet AGL
Clouds: sky clear below 12,000 feet AGL
Weather: no significant weather observed at this time

METAR text: GMME 201300Z 34008KT 300V020 8000 NSC 25/16 Q1016 NOSIG
Conditions at: GMME (RABAT/SALE (RMAF, MA) observed 1300 UTC 20 August 2019
Temperature: 25.0°C (77°F)
Dewpoint: 16.0°C (61°F) [RH = 57%]
Pressure (altimeter): 30.00 inches Hg (1016.0 mb)
Winds: from the NNW (340 degrees) at 9 MPH (8 knots; 4.1 m/s)
Visibility: 5 miles ( 8 km)
Ceiling: at least 12,000 feet AGL
Clouds: sky clear below 12,000 feet AGL
Weather: no significant weather observed at this time

METAR text: GMME 201230Z 32008KT 280V360 5000 NSC 25/16 Q1016 NOSIG
Conditions at: GMME (RABAT/SALE (RMAF, MA) observed 1230 UTC 20 August 2019
Temperature: 25.0°C (77°F)
Dewpoint: 16.0°C (61°F) [RH = 57%]
Pressure (altimeter): 30.00 inches Hg (1016.0 mb)
Winds: from the NW (320 degrees) at 9 MPH (8 knots; 4.1 m/s)
Visibility: 3 miles ( 5 km)
Ceiling: at least 12,000 feet AGL
Clouds: sky clear below 12,000 feet AGL
Weather: no significant weather observed at this time

METAR text: GMME 201200Z 33008KT 270V360 9999 NSC 25/17 Q1016
Conditions at: GMME (RABAT/SALE (RMAF, MA) observed 1200 UTC 20 August 2019
Temperature: 25.0°C (77°F)
Dewpoint: 17.0°C (63°F) [RH = 61%]
Pressure (altimeter): 30.00 inches Hg (1016.0 mb)
Winds: from the NNW (330 degrees) at 9 MPH (8 knots; 4.1 m/s)
Visibility: 6 or more miles (10+ km)
Ceiling: at least 12,000 feet AGL
Clouds: sky clear below 12,000 feet AGL
Weather: no significant weather observed at this time

METAR text: GMME 201100Z 31007KT 260V360 9999 NSC 24/17 Q1017 NOSIG
Conditions at: GMME (RABAT/SALE (RMAF, MA) observed 1100 UTC 20 August 2019
Temperature: 24.0°C (75°F)
Dewpoint: 17.0°C (63°F) [RH = 65%]
Pressure (altimeter): 30.03 inches Hg (1017.0 mb)
Winds: from the NW (310 degrees) at 8 MPH (7 knots; 3.6 m/s)
Visibility: 6 or more miles (10+ km)
Ceiling: at least 12,000 feet AGL
Clouds: sky clear below 12,000 feet AGL
Weather: no significant weather observed at this time

METAR text: GMME 200900Z 29004KT 240V360 9999 SCT016 SCT200 23/17 Q1016 NOSIG
Conditions at: GMME (RABAT/SALE (RMAF, MA) observed 0900 UTC 20 August 2019
Temperature: 23.0°C (73°F)
Dewpoint: 17.0°C (63°F) [RH = 69%]
Pressure (altimeter): 30.00 inches Hg (1016.0 mb)
Winds: from the WNW (290 degrees) at 5 MPH (4 knots; 2.1 m/s)
Visibility: 6 or more miles (10+ km)
Ceiling: at least 12,000 feet AGL
Clouds: scattered clouds at 1600 feet AGL
scattered clouds at 20000 feet AGL
Weather: no significant weather observed at this time

METAR text: GMME 200830Z 30005KT 260V020 9999 SCT016 SCT200 22/17 Q1016 NOSIG
Conditions at: GMME (RABAT/SALE (RMAF, MA) observed 0830 UTC 20 August 2019
Temperature: 22.0°C (72°F)
Dewpoint: 17.0°C (63°F) [RH = 73%]
Pressure (altimeter): 30.00 inches Hg (1016.0 mb)
Winds: from the WNW (300 degrees) at 6 MPH (5 knots; 2.6 m/s)
Visibility: 6 or more miles (10+ km)
Ceiling: at least 12,000 feet AGL
Clouds: scattered clouds at 1600 feet AGL
scattered clouds at 20000 feet AGL
Weather: no significant weather observed at this time

METAR text: GMME 200800Z 27004KT 220V320 9999 SCT016 SCT200 21/18 Q1016 NOSIG
Conditions at: GMME (RABAT/SALE (RMAF, MA) observed 0800 UTC 20 August 2019
Temperature: 21.0°C (70°F)
Dewpoint: 18.0°C (64°F) [RH = 83%]
Pressure (altimeter): 30.00 inches Hg (1016.0 mb)
Winds: from the W (270 degrees) at 5 MPH (4 knots; 2.1 m/s)
Visibility: 6 or more miles (10+ km)
Ceiling: at least 12,000 feet AGL
Clouds: scattered clouds at 1600 feet AGL
scattered clouds at 20000 feet AGL
Weather: no significant weather observed at this time

METAR text: GMME 200730Z VRB02KT 9999 SCT016 SCT200 20/18 Q1016 NOSIG
Conditions at: GMME (RABAT/SALE (RMAF, MA) observed 0730 UTC 20 August 2019
Temperature: 20.0°C (68°F)
Dewpoint: 18.0°C (64°F) [RH = 88%]
Pressure (altimeter): 30.00 inches Hg (1016.0 mb)
Winds: variable direction winds at 2 MPH (2 knots; 1.0 m/s)
Visibility: 6 or more miles (10+ km)
Ceiling: at least 12,000 feet AGL
Clouds: scattered clouds at 1600 feet AGL
scattered clouds at 20000 feet AGL
Weather: no significant weather observed at this time

METAR text: GMME 200700Z 17001KT 5000 NSC 16/15 Q1016 NOSIG
Conditions at: GMME (RABAT/SALE (RMAF, MA) observed 0700 UTC 20 August 2019
Temperature: 16.0°C (61°F)
Dewpoint: 15.0°C (59°F) [RH = 94%]
Pressure (altimeter): 30.00 inches Hg (1016.0 mb)
Winds: from the S (170 degrees) at 1 MPH (1 knots; 0.5 m/s)
Visibility: 3 miles ( 5 km)
Ceiling: at least 12,000 feet AGL
Clouds: sky clear below 12,000 feet AGL
Weather: no significant weather observed at this time

METAR text: GMME 200600Z 00000KT 9999 SCT010 SCT016 15/13 Q1016 NOSIG
Conditions at: GMME (RABAT/SALE (RMAF, MA) observed 0600 UTC 20 August 2019
Temperature: 15.0°C (59°F)
Dewpoint: 13.0°C (55°F) [RH = 88%]
Pressure (altimeter): 30.00 inches Hg (1016.0 mb)
Winds: calm
Visibility: 6 or more miles (10+ km)
Ceiling: at least 12,000 feet AGL
Clouds: scattered clouds at 1000 feet AGL
scattered clouds at 1600 feet AGL
Weather: no significant weather observed at this time

METAR text: GMME 200530Z AUTO VRB01KT 9000NDV /// 15/13 Q1015
Conditions at: GMME (RABAT/SALE (RMAF, MA) observed 0530 UTC 20 August 2019
Temperature: 15.0°C (59°F)
Dewpoint: 13.0°C (55°F) [RH = 88%]
Pressure (altimeter): 29.97 inches Hg (1015.0 mb)
Winds: variable direction winds at 1 MPH (1 knots; 0.5 m/s)
Visibility: missing
Ceiling: unknown
Clouds: missing
Weather: no significant weather observed at this time

METAR text: GMME 200500Z 00000KT 9999 SCT010 SCT016 15/13 Q1015 NOSIG
Conditions at: GMME (RABAT/SALE (RMAF, MA) observed 0500 UTC 20 August 2019
Temperature: 15.0°C (59°F)
Dewpoint: 13.0°C (55°F) [RH = 88%]
Pressure (altimeter): 29.97 inches Hg (1015.0 mb)
Winds: calm
Visibility: 6 or more miles (10+ km)
Ceiling: at least 12,000 feet AGL
Clouds: scattered clouds at 1000 feet AGL
scattered clouds at 1600 feet AGL
Weather: no significant weather observed at this time

METAR text: GMME 200430Z 00000KT 8000 SCT010 SCT016 15/14 Q1015 NOSIG
Conditions at: GMME (RABAT/SALE (RMAF, MA) observed 0430 UTC 20 August 2019
Temperature: 15.0°C (59°F)
Dewpoint: 14.0°C (57°F) [RH = 94%]
Pressure (altimeter): 29.97 inches Hg (1015.0 mb)
Winds: calm
Visibility: 5 miles ( 8 km)
Ceiling: at least 12,000 feet AGL
Clouds: scattered clouds at 1000 feet AGL
scattered clouds at 1600 feet AGL
Weather: no significant weather observed at this time

METAR text: GMME 200400Z 00000KT 9999 SCT010 SCT016 16/14 Q1015 NOSIG
Conditions at: GMME (RABAT/SALE (RMAF, MA) observed 0400 UTC 20 August 2019
Temperature: 16.0°C (61°F)
Dewpoint: 14.0°C (57°F) [RH = 88%]
Pressure (altimeter): 29.97 inches Hg (1015.0 mb)
Winds: calm
Visibility: 6 or more miles (10+ km)
Ceiling: at least 12,000 feet AGL
Clouds: scattered clouds at 1000 feet AGL
scattered clouds at 1600 feet AGL
Weather: no significant weather observed at this time

METAR text: GMME 200330Z 00000KT 8000 SCT010 SCT016 16/14 Q1016 NOSIG
Conditions at: GMME (RABAT/SALE (RMAF, MA) observed 0330 UTC 20 August 2019
Temperature: 16.0°C (61°F)
Dewpoint: 14.0°C (57°F) [RH = 88%]
Pressure (altimeter): 30.00 inches Hg (1016.0 mb)
Winds: calm
Visibility: 5 miles ( 8 km)
Ceiling: at least 12,000 feet AGL
Clouds: scattered clouds at 1000 feet AGL
scattered clouds at 1600 feet AGL
Weather: no significant weather observed at this time

METAR text: GMME 200300Z 00000KT 6000 SCT010 SCT016 17/15 Q1016 NOSIG
Conditions at: GMME (RABAT/SALE (RMAF, MA) observed 0300 UTC 20 August 2019
Temperature: 17.0°C (63°F)
Dewpoint: 15.0°C (59°F) [RH = 88%]
Pressure (altimeter): 30.00 inches Hg (1016.0 mb)
Winds: calm
Visibility: 4 miles ( 6 km)
Ceiling: at least 12,000 feet AGL
Clouds: scattered clouds at 1000 feet AGL
scattered clouds at 1600 feet AGL
Weather: no significant weather observed at this time

METAR text: GMME 200230Z 00000KT 7000 SCT010 SCT016 17/15 Q1016 NOSIG
Conditions at: GMME (RABAT/SALE (RMAF, MA) observed 0230 UTC 20 August 2019
Temperature: 17.0°C (63°F)
Dewpoint: 15.0°C (59°F) [RH = 88%]
Pressure (altimeter): 30.00 inches Hg (1016.0 mb)
Winds: calm
Visibility: 4 miles ( 7 km)
Ceiling: at least 12,000 feet AGL
Clouds: scattered clouds at 1000 feet AGL
scattered clouds at 1600 feet AGL
Weather: no significant weather observed at this time

METAR text: GMME 200130Z 00000KT 8000 SCT010 SCT016 19/17 Q1016 NOSIG
Conditions at: GMME (RABAT/SALE (RMAF, MA) observed 0130 UTC 20 August 2019
Temperature: 19.0°C (66°F)
Dewpoint: 17.0°C (63°F) [RH = 88%]
Pressure (altimeter): 30.00 inches Hg (1016.0 mb)
Winds: calm
Visibility: 5 miles ( 8 km)
Ceiling: at least 12,000 feet AGL
Clouds: scattered clouds at 1000 feet AGL
scattered clouds at 1600 feet AGL
Weather: no significant weather observed at this time

METAR text: GMME 200100Z VRB01KT 8000 SCT010 SCT016 20/17 Q1017 NOSIG
Conditions at: GMME (RABAT/SALE (RMAF, MA) observed 0100 UTC 20 August 2019
Temperature: 20.0°C (68°F)
Dewpoint: 17.0°C (63°F) [RH = 83%]
Pressure (altimeter): 30.03 inches Hg (1017.0 mb)
Winds: variable direction winds at 1 MPH (1 knots; 0.5 m/s)
Visibility: 5 miles ( 8 km)
Ceiling: at least 12,000 feet AGL
Clouds: scattered clouds at 1000 feet AGL
scattered clouds at 1600 feet AGL
Weather: no significant weather observed at this time

METAR text: GMME 200030Z 28004KT 250V320 8000 SCT010 SCT016 21/18 Q1017 NOSIG
Conditions at: GMME (RABAT/SALE (RMAF, MA) observed 0030 UTC 20 August 2019
Temperature: 21.0°C (70°F)
Dewpoint: 18.0°C (64°F) [RH = 83%]
Pressure (altimeter): 30.03 inches Hg (1017.0 mb)
Winds: from the W (280 degrees) at 5 MPH (4 knots; 2.1 m/s)
Visibility: 5 miles ( 8 km)
Ceiling: at least 12,000 feet AGL
Clouds: scattered clouds at 1000 feet AGL
scattered clouds at 1600 feet AGL
Weather: no significant weather observed at this time

METAR text: GMME 200000Z VRB02KT 8000 SCT010 SCT016 20/18 Q1017 NOSIG
Conditions at: GMME (RABAT/SALE (RMAF, MA) observed 0000 UTC 20 August 2019
Temperature: 20.0°C (68°F)
Dewpoint: 18.0°C (64°F) [RH = 88%]
Pressure (altimeter): 30.03 inches Hg (1017.0 mb)
Winds: variable direction winds at 2 MPH (2 knots; 1.0 m/s)
Visibility: 5 miles ( 8 km)
Ceiling: at least 12,000 feet AGL
Clouds: scattered clouds at 1000 feet AGL
scattered clouds at 1600 feet AGL
Weather: no significant weather observed at this time

METAR text: GMME 192330Z 29003KT 250V330 8000 SCT016 21/18 Q1017 NOSIG
Conditions at: GMME (RABAT/SALE (RMAF, MA) observed 2330 UTC 19 August 2019
Temperature: 21.0°C (70°F)
Dewpoint: 18.0°C (64°F) [RH = 83%]
Pressure (altimeter): 30.03 inches Hg (1017.0 mb)
Winds: from the WNW (290 degrees) at 3 MPH (3 knots; 1.5 m/s)
Visibility: 5 miles ( 8 km)
Ceiling: at least 12,000 feet AGL
Clouds: scattered clouds at 1600 feet AGL
Weather: no significant weather observed at this time

METAR text: GMME 192230Z 33004KT 8000 SCT016 21/19 Q1017 NOSIG
Conditions at: GMME (RABAT/SALE (RMAF, MA) observed 2230 UTC 19 August 2019
Temperature: 21.0°C (70°F)
Dewpoint: 19.0°C (66°F) [RH = 88%]
Pressure (altimeter): 30.03 inches Hg (1017.0 mb)
Winds: from the NNW (330 degrees) at 5 MPH (4 knots; 2.1 m/s)
Visibility: 5 miles ( 8 km)
Ceiling: at least 12,000 feet AGL
Clouds: scattered clouds at 1600 feet AGL
Weather: no significant weather observed at this time

METAR text: GMME 192200Z 00000KT 8000 SCT016 20/17 Q1017 NOSIG
Conditions at: GMME (RABAT/SALE (RMAF, MA) observed 2200 UTC 19 August 2019
Temperature: 20.0°C (68°F)
Dewpoint: 17.0°C (63°F) [RH = 83%]
Pressure (altimeter): 30.03 inches Hg (1017.0 mb)
Winds: calm
Visibility: 5 miles ( 8 km)
Ceiling: at least 12,000 feet AGL
Clouds: scattered clouds at 1600 feet AGL
Weather: no significant weather observed at this time

METAR text: GMME 192100Z 35001KT 8000 SCT010 SCT016 22/18 Q1016 NOSIG
Conditions at: GMME (RABAT/SALE (RMAF, MA) observed 2100 UTC 19 August 2019
Temperature: 22.0°C (72°F)
Dewpoint: 18.0°C (64°F) [RH = 78%]
Pressure (altimeter): 30.00 inches Hg (1016.0 mb)
Winds: from the N (350 degrees) at 1 MPH (1 knots; 0.5 m/s)
Visibility: 5 miles ( 8 km)
Ceiling: at least 12,000 feet AGL
Clouds: scattered clouds at 1000 feet AGL
scattered clouds at 1600 feet AGL
Weather: no significant weather observed at this time

METAR text: GMME 192000Z 02007KT 340V050 8000 SCT010 SCT016 23/19 Q1016 NOSIG
Conditions at: GMME (RABAT/SALE (RMAF, MA) observed 2000 UTC 19 August 2019
Temperature: 23.0°C (73°F)
Dewpoint: 19.0°C (66°F) [RH = 78%]
Pressure (altimeter): 30.00 inches Hg (1016.0 mb)
Winds: from the NNE (20 degrees) at 8 MPH (7 knots; 3.6 m/s)
Visibility: 5 miles ( 8 km)
Ceiling: at least 12,000 feet AGL
Clouds: scattered clouds at 1000 feet AGL
scattered clouds at 1600 feet AGL
Weather: no significant weather observed at this time

METAR text: GMME 191930Z 01006KT 320V040 8000 SCT010 SCT016 23/19 Q1016 NOSIG
Conditions at: GMME (RABAT/SALE (RMAF, MA) observed 1930 UTC 19 August 2019
Temperature: 23.0°C (73°F)
Dewpoint: 19.0°C (66°F) [RH = 78%]
Pressure (altimeter): 30.00 inches Hg (1016.0 mb)
Winds: from the N (10 degrees) at 7 MPH (6 knots; 3.1 m/s)
Visibility: 5 miles ( 8 km)
Ceiling: at least 12,000 feet AGL
Clouds: scattered clouds at 1000 feet AGL
scattered clouds at 1600 feet AGL
Weather: no significant weather observed at this time

METAR text: GMME 191900Z 36008KT 8000 SCT010 SCT016 23/19 Q1015 NOSIG
Conditions at: GMME (RABAT/SALE (RMAF, MA) observed 1900 UTC 19 August 2019
Temperature: 23.0°C (73°F)
Dewpoint: 19.0°C (66°F) [RH = 78%]
Pressure (altimeter): 29.97 inches Hg (1015.0 mb)
Winds: from the N (360 degrees) at 9 MPH (8 knots; 4.1 m/s)
Visibility: 5 miles ( 8 km)
Ceiling: at least 12,000 feet AGL
Clouds: scattered clouds at 1000 feet AGL
scattered clouds at 1600 feet AGL
Weather: no significant weather observed at this time

METAR text: GMME 191830Z 36008KT 330V030 8000 SCT010 SCT016 24/18 Q1015 NOSIG
Conditions at: GMME (RABAT/SALE (RMAF, MA) observed 1830 UTC 19 August 2019
Temperature: 24.0°C (75°F)
Dewpoint: 18.0°C (64°F) [RH = 69%]
Pressure (altimeter): 29.97 inches Hg (1015.0 mb)
Winds: from the N (360 degrees) at 9 MPH (8 knots; 4.1 m/s)
Visibility: 5 miles ( 8 km)
Ceiling: at least 12,000 feet AGL
Clouds: scattered clouds at 1000 feet AGL
scattered clouds at 1600 feet AGL
Weather: no significant weather observed at this time

METAR text: GMME 191800Z 36008KT 330V030 8000 SCT010 SCT016 24/18 Q1015 NOSIG
Conditions at: GMME (RABAT/SALE (RMAF, MA) observed 1800 UTC 19 August 2019
Temperature: 24.0°C (75°F)
Dewpoint: 18.0°C (64°F) [RH = 69%]
Pressure (altimeter): 29.97 inches Hg (1015.0 mb)
Winds: from the N (360 degrees) at 9 MPH (8 knots; 4.1 m/s)
Visibility: 5 miles ( 8 km)
Ceiling: at least 12,000 feet AGL
Clouds: scattered clouds at 1000 feet AGL
scattered clouds at 1600 feet AGL
Weather: no significant weather observed at this time

METAR text: GMME 191730Z 34009KT 310V010 8000 SCT010 SCT016 24/19 Q1015 NOSIG
Conditions at: GMME (RABAT/SALE (RMAF, MA) observed 1730 UTC 19 August 2019
Temperature: 24.0°C (75°F)
Dewpoint: 19.0°C (66°F) [RH = 74%]
Pressure (altimeter): 29.97 inches Hg (1015.0 mb)
Winds: from the NNW (340 degrees) at 10 MPH (9 knots; 4.6 m/s)
Visibility: 5 miles ( 8 km)
Ceiling: at least 12,000 feet AGL
Clouds: scattered clouds at 1000 feet AGL
scattered clouds at 1600 feet AGL
Weather: no significant weather observed at this time

METAR text: GMME 191700Z 34010KT 320V020 8000 SCT010 SCT016 24/18 Q1015 NOSIG
Conditions at: GMME (RABAT/SALE (RMAF, MA) observed 1700 UTC 19 August 2019
Temperature: 24.0°C (75°F)
Dewpoint: 18.0°C (64°F) [RH = 69%]
Pressure (altimeter): 29.97 inches Hg (1015.0 mb)
Winds: from the NNW (340 degrees) at 12 MPH (10 knots; 5.1 m/s)
Visibility: 5 miles ( 8 km)
Ceiling: at least 12,000 feet AGL
Clouds: scattered clouds at 1000 feet AGL
scattered clouds at 1600 feet AGL
Weather: no significant weather observed at this time

METAR text: GMME 191630Z 35011KT 310V010 8000 SCT020 25/18 Q1015 NOSIG
Conditions at: GMME (RABAT/SALE (RMAF, MA) observed 1630 UTC 19 August 2019
Temperature: 25.0°C (77°F)
Dewpoint: 18.0°C (64°F) [RH = 65%]
Pressure (altimeter): 29.97 inches Hg (1015.0 mb)
Winds: from the N (350 degrees) at 13 MPH (11 knots; 5.7 m/s)
Visibility: 5 miles ( 8 km)
Ceiling: at least 12,000 feet AGL
Clouds: scattered clouds at 2000 feet AGL
Weather: no significant weather observed at this time

METAR text: GMME 191530Z 33010KT 290V010 8000 NSC 26/18 Q1015 NOSIG
Conditions at: GMME (RABAT/SALE (RMAF, MA) observed 1530 UTC 19 August 2019
Temperature: 26.0°C (79°F)
Dewpoint: 18.0°C (64°F) [RH = 61%]
Pressure (altimeter): 29.97 inches Hg (1015.0 mb)
Winds: from the NNW (330 degrees) at 12 MPH (10 knots; 5.1 m/s)
Visibility: 5 miles ( 8 km)
Ceiling: at least 12,000 feet AGL
Clouds: sky clear below 12,000 feet AGL
Weather: no significant weather observed at this time

METAR text: GMME 191500Z 32012KT 8000 NSC 25/17 Q1015 NOSIG
Conditions at: GMME (RABAT/SALE (RMAF, MA) observed 1500 UTC 19 August 2019
Temperature: 25.0°C (77°F)
Dewpoint: 17.0°C (63°F) [RH = 61%]
Pressure (altimeter): 29.97 inches Hg (1015.0 mb)
Winds: from the NW (320 degrees) at 14 MPH (12 knots; 6.2 m/s)
Visibility: 5 miles ( 8 km)
Ceiling: at least 12,000 feet AGL
Clouds: sky clear below 12,000 feet AGL
Weather: no significant weather observed at this time

METAR text: GMME 191430Z 32009KT 280V360 8000 NSC 25/17 Q1015 NOSIG
Conditions at: GMME (RABAT/SALE (RMAF, MA) observed 1430 UTC 19 August 2019
Temperature: 25.0°C (77°F)
Dewpoint: 17.0°C (63°F) [RH = 61%]
Pressure (altimeter): 29.97 inches Hg (1015.0 mb)
Winds: from the NW (320 degrees) at 10 MPH (9 knots; 4.6 m/s)
Visibility: 5 miles ( 8 km)
Ceiling: at least 12,000 feet AGL
Clouds: sky clear below 12,000 feet AGL
Weather: no significant weather observed at this time

METAR text: GMME 191400Z 31007KT 250V360 8000 NSC 26/17 Q1015 NOSIG
Conditions at: GMME (RABAT/SALE (RMAF, MA) observed 1400 UTC 19 August 2019
Temperature: 26.0°C (79°F)
Dewpoint: 17.0°C (63°F) [RH = 58%]
Pressure (altimeter): 29.97 inches Hg (1015.0 mb)
Winds: from the NW (310 degrees) at 8 MPH (7 knots; 3.6 m/s)
Visibility: 5 miles ( 8 km)
Ceiling: at least 12,000 feet AGL
Clouds: sky clear below 12,000 feet AGL
Weather: no significant weather observed at this time

METAR text: GMME 191330Z 32007KT 280V020 8000 NSC 26/17 Q1015 NOSIG
Conditions at: GMME (RABAT/SALE (RMAF, MA) observed 1330 UTC 19 August 2019
Temperature: 26.0°C (79°F)
Dewpoint: 17.0°C (63°F) [RH = 58%]
Pressure (altimeter): 29.97 inches Hg (1015.0 mb)
Winds: from the NW (320 degrees) at 8 MPH (7 knots; 3.6 m/s)
Visibility: 5 miles ( 8 km)
Ceiling: at least 12,000 feet AGL
Clouds: sky clear below 12,000 feet AGL
Weather: no significant weather observed at this time

METAR text: GMME 191300Z 32006KT 270V020 8000 NSC 26/17 Q1015 NOSIG
Conditions at: GMME (RABAT/SALE (RMAF, MA) observed 1300 UTC 19 August 2019
Temperature: 26.0°C (79°F)
Dewpoint: 17.0°C (63°F) [RH = 58%]
Pressure (altimeter): 29.97 inches Hg (1015.0 mb)
Winds: from the NW (320 degrees) at 7 MPH (6 knots; 3.1 m/s)
Visibility: 5 miles ( 8 km)
Ceiling: at least 12,000 feet AGL
Clouds: sky clear below 12,000 feet AGL
Weather: no significant weather observed at this time

METAR text: GMME 191230Z 33007KT 280V010 8000 NSC 25/17 Q1016 NOSIG
Conditions at: GMME (RABAT/SALE (RMAF, MA) observed 1230 UTC 19 August 2019
Temperature: 25.0°C (77°F)
Dewpoint: 17.0°C (63°F) [RH = 61%]
Pressure (altimeter): 30.00 inches Hg (1016.0 mb)
Winds: from the NNW (330 degrees) at 8 MPH (7 knots; 3.6 m/s)
Visibility: 5 miles ( 8 km)
Ceiling: at least 12,000 feet AGL
Clouds: sky clear below 12,000 feet AGL
Weather: no significant weather observed at this time

METAR text: GMME 191200Z 32006KT 250V360 8000 FEW016 25/17 Q1016 NOSIG
Conditions at: GMME (RABAT/SALE (RMAF, MA) observed 1200 UTC 19 August 2019
Temperature: 25.0°C (77°F)
Dewpoint: 17.0°C (63°F) [RH = 61%]
Pressure (altimeter): 30.00 inches Hg (1016.0 mb)
Winds: from the NW (320 degrees) at 7 MPH (6 knots; 3.1 m/s)
Visibility: 5 miles ( 8 km)
Ceiling: at least 12,000 feet AGL
Clouds: few clouds at 1600 feet AGL
Weather: no significant weather observed at this time

METAR text: GMME 191130Z 32007KT 270V010 8000 FEW016 25/17 Q1016 NOSIG
Conditions at: GMME (RABAT/SALE (RMAF, MA) observed 1130 UTC 19 August 2019
Temperature: 25.0°C (77°F)
Dewpoint: 17.0°C (63°F) [RH = 61%]
Pressure (altimeter): 30.00 inches Hg (1016.0 mb)
Winds: from the NW (320 degrees) at 8 MPH (7 knots; 3.6 m/s)
Visibility: 5 miles ( 8 km)
Ceiling: at least 12,000 feet AGL
Clouds: few clouds at 1600 feet AGL
Weather: no significant weather observed at this time

METAR text: GMME 191100Z 33006KT 260V010 8000 FEW016 25/17 Q1016 NOSIG
Conditions at: GMME (RABAT/SALE (RMAF, MA) observed 1100 UTC 19 August 2019
Temperature: 25.0°C (77°F)
Dewpoint: 17.0°C (63°F) [RH = 61%]
Pressure (altimeter): 30.00 inches Hg (1016.0 mb)
Winds: from the NNW (330 degrees) at 7 MPH (6 knots; 3.1 m/s)
Visibility: 5 miles ( 8 km)
Ceiling: at least 12,000 feet AGL
Clouds: few clouds at 1600 feet AGL
Weather: no significant weather observed at this time

METAR text: GMME 191030Z 31006KT 250V350 8000 FEW016 24/16 Q1016 NOSIG
Conditions at: GMME (RABAT/SALE (RMAF, MA) observed 1030 UTC 19 August 2019
Temperature: 24.0°C (75°F)
Dewpoint: 16.0°C (61°F) [RH = 61%]
Pressure (altimeter): 30.00 inches Hg (1016.0 mb)
Winds: from the NW (310 degrees) at 7 MPH (6 knots; 3.1 m/s)
Visibility: 5 miles ( 8 km)
Ceiling: at least 12,000 feet AGL
Clouds: few clouds at 1600 feet AGL
Weather: no significant weather observed at this time

METAR text: GMME 191000Z 33006KT 250V030 8000 FEW016 24/17 Q1016 NOSIG
Conditions at: GMME (RABAT/SALE (RMAF, MA) observed 1000 UTC 19 August 2019
Temperature: 24.0°C (75°F)
Dewpoint: 17.0°C (63°F) [RH = 65%]
Pressure (altimeter): 30.00 inches Hg (1016.0 mb)
Winds: from the NNW (330 degrees) at 7 MPH (6 knots; 3.1 m/s)
Visibility: 5 miles ( 8 km)
Ceiling: at least 12,000 feet AGL
Clouds: few clouds at 1600 feet AGL
Weather: no significant weather observed at this time

METAR text: GMME 190930Z 32005KT 270V360 7000 SCT016 24/16 Q1016 NOSIG
Conditions at: GMME (RABAT/SALE (RMAF, MA) observed 0930 UTC 19 August 2019
Temperature: 24.0°C (75°F)
Dewpoint: 16.0°C (61°F) [RH = 61%]
Pressure (altimeter): 30.00 inches Hg (1016.0 mb)
Winds: from the NW (320 degrees) at 6 MPH (5 knots; 2.6 m/s)
Visibility: 4 miles ( 7 km)
Ceiling: at least 12,000 feet AGL
Clouds: scattered clouds at 1600 feet AGL
Weather: no significant weather observed at this time

METAR text: GMME 190900Z 32006KT 280V350 7000 SCT016 24/17 Q1016 NOSIG
Conditions at: GMME (RABAT/SALE (RMAF, MA) observed 0900 UTC 19 August 2019
Temperature: 24.0°C (75°F)
Dewpoint: 17.0°C (63°F) [RH = 65%]
Pressure (altimeter): 30.00 inches Hg (1016.0 mb)
Winds: from the NW (320 degrees) at 7 MPH (6 knots; 3.1 m/s)
Visibility: 4 miles ( 7 km)
Ceiling: at least 12,000 feet AGL
Clouds: scattered clouds at 1600 feet AGL
Weather: no significant weather observed at this time

Forecast for: GMME (RABAT/SALE (RMAF, MA)
Text: TAF GMME 201100Z 2012/2118 32006KT 8000 NSC
Forecast period: 1200 UTC 20 August 2019 to 1800 UTC 21 August 2019
Forecast type: FROM: standard forecast or significant change
Winds: from the NW (320 degrees) at 7 MPH (6 knots; 3.1 m/s)
Visibility: 5 miles (8 km)
Ceiling: unknown
Clouds: missing
Weather: no significant weather forecast for this period